Shelbyville, Tennessee
Current Conditions -  °F | °C
As of 2:55 AM on Friday 31 Oct 2014 (Local Time) from KSYI Reporting Station
Overcast Overcast  
Wind Chill: 42°   Ceiling: 7500
Heat Index: 45°   Visibility: 10mi
Dew Point: 45°   Wind: 5mph
Humidity: 100%   Direction: 80°E
Pressure: 29.99"   Gusts: NA
Location:  35.48°N, 86.46°W
Report Text: KSYI 310755Z AUTO 08004KT 10SM SCT065 BKN075 OVC090 07/07 A2999 RMK
Loading
Personal Weather Stations






























Interactive Weather Map New forecast layout! Learn more

10-Day Weather Forecast

Advertisements
Track Severe Weather on mobile